Time;durP1;ratioP1;P1;durP2;ratioP2;P2;SDS_P1;SDS_P2;PMS_P1;PMS_P2;Temp;Humidity;BMP_temperature;BMP_pressure;BME280_temperature;BME280_humidity;BME280_pressure;Samples;Min_cycle;Max_cycle;Signal;HPM_P1;HPM_P2
2022/02/16 00:01:35;;;;;;;4.32;1.80;;;8.30;99.90;;;;;;5039971;28;20025;-87
2022/02/16 00:04:01;;;;;;;2.42;2.00;;;8.40;99.90;;;;;;5040303;28;20029;-87
2022/02/16 00:06:26;;;;;;;3.90;1.73;;;8.40;99.90;;;;;;5042253;28;20033;-86
2022/02/16 00:08:52;;;;;;;4.63;1.70;;;8.50;99.90;;;;;;5040632;28;20093;-87
2022/02/16 00:11:18;;;;;;;5.05;2.15;;;8.30;99.90;;;;;;5039933;28;20120;-86
2022/02/16 00:13:44;;;;;;;4.63;2.47;;;8.30;99.90;;;;;;5040768;28;20050;-87
2022/02/16 00:16:09;;;;;;;4.18;1.75;;;8.50;99.90;;;;;;5042631;28;20080;-89
2022/02/16 00:18:36;;;;;;;4.68;1.83;;;8.40;99.90;;;;;;5038354;28;20498;-87
2022/02/16 00:21:02;;;;;;;2.78;1.50;;;12.20;99.90;;;;;;5038974;28;20057;-86
2022/02/16 00:23:28;;;;;;;4.13;2.20;;;7.80;99.90;;;;;;5046587;28;20057;-86
2022/02/16 00:25:55;;;;;;;3.65;1.90;;;8.20;99.90;;;;;;5041500;28;20037;-87
2022/02/16 00:28:21;;;;;;;5.38;1.90;;;8.30;99.90;;;;;;5039507;28;20033;-88
2022/02/16 00:30:47;;;;;;;4.10;2.53;;;8.20;99.90;;;;;;5040839;28;20033;-86
2022/02/16 00:33:13;;;;;;;5.00;2.60;;;7.80;99.90;;;;;;5041178;28;20054;-86
2022/02/16 00:35:39;;;;;;;5.05;2.40;;;8.20;99.90;;;;;;5043124;28;20017;-86
2022/02/16 00:38:05;;;;;;;4.03;2.25;;;8.40;99.90;;;;;;5042681;28;20017;-87
2022/02/16 00:40:30;;;;;;;5.57;2.80;;;8.40;99.90;;;;;;5041885;28;20060;-87
2022/02/16 00:42:56;;;;;;;5.25;2.92;;;8.40;99.90;;;;;;5044125;28;20467;-87
2022/02/16 00:45:21;;;;;;;4.13;2.47;;;8.40;99.90;;;;;;5042332;28;20030;-86
2022/02/16 00:47:47;;;;;;;4.78;2.75;;;8.40;99.90;;;;;;5047956;28;20040;-86
2022/02/16 00:50:13;;;;;;;5.95;2.95;;;8.40;99.90;;;;;;5056245;28;20088;-88
2022/02/16 00:52:39;;;;;;;5.32;2.78;;;;;;;;;;5050863;28;20036;-87
2022/02/16 00:55:06;;;;;;;3.95;2.30;;;8.40;99.90;;;;;;5069216;28;20124;-87
2022/02/16 00:57:32;;;;;;;4.45;2.55;;;8.40;99.90;;;;;;5049725;28;20030;-87
2022/02/16 00:59:58;;;;;;;5.47;2.80;;;8.30;99.90;;;;;;5055720;28;20087;-86
2022/02/16 01:02:25;;;;;;;5.72;2.90;;;8.30;99.90;;;;;;5054497;28;20421;-87
2022/02/16 01:04:50;;;;;;;5.03;2.55;;;8.10;99.90;;;;;;5053539;28;20056;-86
2022/02/16 01:07:16;;;;;;;7.75;2.95;;;10.00;99.90;;;;;;5055842;28;20046;-87
2022/02/16 01:09:42;;;;;;;5.95;3.03;;;;;;;;;;5048516;28;20032;-87
2022/02/16 01:12:08;;;;;;;4.78;2.63;;;8.40;99.90;;;;;;5066581;28;20037;-87
2022/02/16 01:14:34;;;;;;;5.60;3.17;;;8.40;99.90;;;;;;5049189;28;20028;-87
2022/02/16 01:17:00;;;;;;;7.45;2.33;;;8.40;99.90;;;;;;5048729;28;20025;-87
2022/02/16 01:19:26;;;;;;;5.53;2.30;;;8.40;99.90;;;;;;5050908;28;20021;-88
2022/02/16 01:21:52;;;;;;;6.00;2.47;;;8.20;99.90;;;;;;5052381;28;20072;-88
2022/02/16 01:24:18;;;;;;;3.40;1.63;;;7.60;99.90;;;;;;5046007;28;20037;-87
2022/02/16 01:26:44;;;;;;;3.55;1.75;;;;;;;;;;5050222;28;20057;-87
2022/02/16 01:29:10;;;;;;;3.13;1.55;;;8.30;99.90;;;;;;5072057;28;20025;-87
2022/02/16 01:31:36;;;;;;;4.15;1.27;;;8.30;99.90;;;;;;5050764;28;20031;-88
2022/02/16 01:34:02;;;;;;;3.97;1.70;;;8.30;99.90;;;;;;5047770;28;20021;-87
2022/02/16 01:36:27;;;;;;;3.28;0.95;;;8.30;99.90;;;;;;5045712;28;20063;-88
2022/02/16 01:38:53;;;;;;;6.85;1.70;;;8.10;99.90;;;;;;5048980;28;20022;-88
2022/02/16 01:41:19;;;;;;;3.83;1.30;;;8.20;99.90;;;;;;5046961;28;20024;-88
2022/02/16 01:43:53;;;;;;;2.30;0.98;;;11.50;99.90;;;;;;5046311;28;20025;-87
2022/02/16 01:46:20;;;;;;;3.67;0.80;;;8.20;99.90;;;;;;5050713;28;20026;-86
2022/02/16 01:48:45;;;;;;;5.35;1.70;;;8.30;99.90;;;;;;5053226;28;20104;-87
2022/02/16 01:51:12;;;;;;;2.47;1.10;;;8.30;99.90;;;;;;5043844;28;20022;-88
2022/02/16 01:53:39;;;;;;;3.10;1.20;;;8.30;99.90;;;;;;5046065;28;20044;-87
2022/02/16 01:56:05;;;;;;;3.08;1.13;;;8.20;99.90;;;;;;5048063;28;20044;-87
2022/02/16 01:58:35;;;;;;;2.47;1.00;;;8.40;99.90;;;;;;5050668;28;20041;-88
2022/02/16 02:01:03;;;;;;;1.92;0.88;;;8.30;99.90;;;;;;5047928;28;20018;-88
2022/02/16 02:03:29;;;;;;;3.33;1.10;;;8.20;99.90;;;;;;5051866;28;20060;-87
2022/02/16 02:05:54;;;;;;;3.28;1.20;;;7.40;99.90;;;;;;5053751;28;20029;-88
2022/02/16 02:08:21;;;;;;;3.35;0.88;;;8.60;99.90;;;;;;5050398;28;20017;-87
2022/02/16 02:10:50;;;;;;;7.22;0.65;;;11.60;99.90;;;;;;5048837;28;20022;-87
2022/02/16 02:13:17;;;;;;;2.53;0.73;;;8.10;99.90;;;;;;5045294;28;20025;-87
2022/02/16 02:15:42;;;;;;;7.70;1.65;;;8.10;99.90;;;;;;5042236;28;20029;-87
2022/02/16 02:18:15;;;;;;;4.25;1.15;;;8.40;99.90;;;;;;5045719;28;20051;-87
2022/02/16 02:20:42;;;;;;;5.40;1.42;;;8.30;99.90;;;;;;5046964;28;20497;-87
2022/02/16 02:23:09;;;;;;;4.78;1.27;;;9.60;99.90;;;;;;5044147;28;20022;-87
2022/02/16 02:25:54;;;;;;;4.82;1.80;;;8.40;99.90;;;;;;5052468;28;20032;-87
2022/02/16 02:28:25;;;;;;;6.38;1.77;;;8.40;99.90;;;;;;5049317;28;20029;-88
2022/02/16 02:30:50;;;;;;;12.05;2.42;;;8.40;99.90;;;;;;5041713;28;20022;-87
2022/02/16 02:33:16;;;;;;;4.35;2.08;;;8.40;99.90;;;;;;5040803;28;20033;-88
2022/02/16 02:35:43;;;;;;;9.88;3.78;;;8.40;99.90;;;;;;5039923;28;20029;-88
2022/02/16 02:38:08;;;;;;;11.13;3.20;;;8.40;99.90;;;;;;5041951;28;20017;-87
2022/02/16 02:40:34;;;;;;;7.97;3.47;;;8.40;99.90;;;;;;5047470;28;20027;-87
2022/02/16 02:43:00;;;;;;;7.30;3.85;;;8.50;99.90;;;;;;5047499;28;20013;-87
2022/02/16 02:45:26;;;;;;;10.82;4.35;;;8.50;99.90;;;;;;5052861;28;20022;-87
2022/02/16 02:47:51;;;;;;;10.07;4.55;;;9.80;99.90;;;;;;5047994;28;20144;-87
2022/02/16 02:50:17;;;;;;;11.45;4.43;;;8.40;99.90;;;;;;5050482;28;20029;-87
2022/02/16 02:52:44;;;;;;;12.18;4.90;;;8.30;99.90;;;;;;5044661;28;20017;-87
2022/02/16 02:55:11;;;;;;;10.90;4.60;;;8.40;99.90;;;;;;5044298;28;20018;-87
2022/02/16 02:57:38;;;;;;;11.23;4.53;;;8.70;99.90;;;;;;5041433;28;20022;-87
2022/02/16 03:00:05;;;;;;;8.27;4.57;;;8.40;99.90;;;;;;5039737;28;20018;-88
2022/02/16 03:02:31;;;;;;;11.27;4.22;;;8.70;99.90;;;;;;5035974;28;20033;-87
2022/02/16 03:04:56;;;;;;;7.85;3.38;;;12.70;99.90;;;;;;5039532;28;20021;-86
2022/02/16 03:07:22;;;;;;;12.50;4.13;;;8.70;99.90;;;;;;5043409;28;20053;-86
2022/02/16 03:09:47;;;;;;;7.72;3.67;;;8.50;99.90;;;;;;5044847;28;20033;-87
2022/02/16 03:12:13;;;;;;;9.23;3.30;;;11.70;99.90;;;;;;5042813;28;20033;-86
2022/02/16 03:14:38;;;;;;;10.35;4.25;;;8.60;99.90;;;;;;5045081;28;20025;-87
2022/02/16 03:17:04;;;;;;;8.48;4.25;;;8.60;99.90;;;;;;5051320;28;20033;-87
2022/02/16 03:19:30;;;;;;;8.57;3.55;;;8.60;99.90;;;;;;5046948;28;20037;-86
2022/02/16 03:21:56;;;;;;;7.88;3.67;;;8.50;99.90;;;;;;5041159;28;20441;-87
2022/02/16 03:24:21;;;;;;;10.25;4.15;;;10.30;99.90;;;;;;5040664;28;20013;-87
2022/02/16 03:26:47;;;;;;;10.15;3.92;;;8.60;99.90;;;;;;5039578;28;20122;-87
2022/02/16 03:29:13;;;;;;;7.38;3.38;;;12.90;99.90;;;;;;5040673;28;20022;-87
2022/02/16 03:31:39;;;;;;;7.45;3.75;;;8.80;99.90;;;;;;5042288;28;20379;-87
2022/02/16 03:34:05;;;;;;;6.80;3.80;;;8.80;99.90;;;;;;5039754;28;20071;-87
2022/02/16 03:36:30;;;;;;;9.25;3.40;;;8.80;99.90;;;;;;5040468;28;20122;-88
2022/02/16 03:38:57;;;;;;;8.07;3.65;;;8.80;99.90;;;;;;5043168;28;20022;-87
2022/02/16 03:41:23;;;;;;;7.88;3.42;;;8.60;99.90;;;;;;5045145;28;20027;-87
2022/02/16 03:43:49;;;;;;;4.72;3.03;;;8.50;99.90;;;;;;5046591;28;20021;-87
2022/02/16 03:46:15;;;;;;;5.47;3.00;;;8.80;99.90;;;;;;5049368;28;20036;-86
2022/02/16 03:48:40;;;;;;;7.97;2.80;;;8.70;99.90;;;;;;5046673;28;20032;-87
2022/02/16 03:51:06;;;;;;;8.07;3.20;;;8.00;99.90;;;;;;5040466;28;20018;-87
2022/02/16 03:53:32;;;;;;;5.15;2.90;;;;;;;;;;5045239;28;20025;-86
2022/02/16 03:55:57;;;;;;;3.72;2.35;;;8.90;99.90;;;;;;5061756;28;20032;-88
2022/02/16 03:58:23;;;;;;;6.25;2.67;;;8.70;99.90;;;;;;5046314;28;20056;-86
2022/02/16 04:00:49;;;;;;;7.07;2.67;;;8.60;99.90;;;;;;5044912;28;20087;-87
2022/02/16 04:03:14;;;;;;;3.42;2.20;;;12.30;99.90;;;;;;5043784;28;20030;-86
2022/02/16 04:05:42;;;;;;;6.00;1.90;;;8.60;99.90;;;;;;5041606;28;20088;-87
2022/02/16 04:08:09;;;;;;;5.67;2.20;;;7.90;99.90;;;;;;5046897;28;20081;-86
2022/02/16 04:10:35;;;;;;;5.30;2.22;;;;;;;;;;5041706;28;20028;-87
2022/02/16 04:13:01;;;;;;;4.15;1.48;;;8.90;99.90;;;;;;5040996;28;20033;-86
2022/02/16 04:15:26;;;;;;;6.40;1.85;;;8.60;99.90;;;;;;5039974;28;20113;-87
2022/02/16 04:17:52;;;;;;;4.95;2.33;;;9.40;99.90;;;;;;5047860;28;20029;-85
2022/02/16 04:20:18;;;;;;;5.05;2.08;;;8.70;99.90;;;;;;5041602;28;20025;-86
2022/02/16 04:22:46;;;;;;;3.38;1.48;;;8.90;99.90;;;;;;5052550;28;20029;-86
2022/02/16 04:25:13;;;;;;;3.43;1.80;;;8.90;99.90;;;;;;5048192;28;20036;-86
2022/02/16 04:27:39;;;;;;;3.47;1.80;;;8.90;99.90;;;;;;5044776;28;20045;-86
2022/02/16 04:30:07;;;;;;;2.33;1.50;;;8.80;99.90;;;;;;5050242;28;20029;-86
2022/02/16 04:32:32;;;;;;;3.30;1.90;;;8.90;99.90;;;;;;5049521;28;20033;-87
2022/02/16 04:34:58;;;;;;;3.67;1.85;;;8.00;99.90;;;;;;5048311;28;20112;-88
2022/02/16 04:37:24;;;;;;;5.70;2.40;;;7.80;99.90;;;;;;5043061;28;20022;-87
2022/02/16 04:39:50;;;;;;;5.32;2.60;;;8.80;99.90;;;;;;5047894;28;20112;-88
2022/02/16 04:42:16;;;;;;;8.43;2.22;;;8.80;99.90;;;;;;5046231;28;20108;-86
2022/02/16 04:44:42;;;;;;;4.03;2.45;;;8.80;99.90;;;;;;5040710;28;20033;-88
2022/02/16 04:47:08;;;;;;;4.05;2.50;;;8.90;99.90;;;;;;5046960;28;20040;-88
2022/02/16 04:49:34;;;;;;;5.63;3.40;;;8.80;99.90;;;;;;5048721;28;20033;-87
2022/02/16 04:51:59;;;;;;;5.55;3.33;;;8.50;99.90;;;;;;5042089;28;20124;-86
2022/02/16 04:54:25;;;;;;;6.10;3.67;;;8.70;99.90;;;;;;5041287;28;20025;-88
2022/02/16 04:56:51;;;;;;;10.13;5.35;;;8.80;99.90;;;;;;5044182;28;20549;-87
2022/02/16 04:59:16;;;;;;;8.88;4.82;;;8.80;99.90;;;;;;5042888;28;20022;-87
2022/02/16 05:01:45;;;;;;;9.45;5.05;;;8.60;99.90;;;;;;5038007;28;20027;-88
2022/02/16 05:04:11;;;;;;;5.72;3.28;;;8.80;99.90;;;;;;5039699;28;20514;-87
2022/02/16 05:06:38;;;;;;;8.07;4.85;;;8.70;99.90;;;;;;5041894;28;20072;-87
2022/02/16 05:09:07;;;;;;;6.95;4.28;;;8.80;99.90;;;;;;5039572;28;20033;-86
2022/02/16 05:11:32;;;;;;;6.43;3.55;;;8.90;99.90;;;;;;5045378;28;20033;-87
2022/02/16 05:13:58;;;;;;;6.43;3.00;;;8.80;99.90;;;;;;5041864;28;20112;-88
2022/02/16 05:16:24;;;;;;;4.22;2.28;;;8.50;99.90;;;;;;5049979;28;20041;-87
2022/02/16 05:18:50;;;;;;;4.22;2.45;;;8.90;99.90;;;;;;5049957;28;20034;-87
2022/02/16 05:21:15;;;;;;;5.75;2.60;;;8.70;99.90;;;;;;5048630;28;20032;-87
2022/02/16 05:23:42;;;;;;;3.92;2.30;;;11.60;99.90;;;;;;5046738;28;20016;-86
2022/02/16 05:26:08;;;;;;;7.75;2.80;;;8.70;99.90;;;;;;5049750;28;20480;-86
2022/02/16 05:28:33;;;;;;;3.67;2.50;;;8.70;99.90;;;;;;5046599;28;20017;-87
2022/02/16 05:30:59;;;;;;;4.47;1.92;;;8.60;99.90;;;;;;5040495;28;20040;-87
2022/02/16 05:33:26;;;;;;;3.78;1.52;;;10.20;99.90;;;;;;5039117;28;20028;-87
2022/02/16 05:35:51;;;;;;;5.57;2.17;;;11.20;99.90;;;;;;5037903;28;20022;-88
2022/02/16 05:38:17;;;;;;;3.55;2.13;;;8.90;99.90;;;;;;5036162;28;20167;-87
2022/02/16 05:40:43;;;;;;;2.88;1.75;;;9.20;99.90;;;;;;5038740;28;20030;-87
2022/02/16 05:43:13;;;;;;;3.47;2.05;;;8.90;99.90;;;;;;5040215;28;20009;-87
2022/02/16 05:45:40;;;;;;;2.15;1.60;;;8.90;99.90;;;;;;5037465;28;20018;-88
2022/02/16 05:48:05;;;;;;;3.25;1.70;;;8.90;99.90;;;;;;5037244;28;20033;-87
2022/02/16 05:50:31;;;;;;;3.03;1.52;;;8.90;99.90;;;;;;5035055;28;20017;-88
2022/02/16 05:52:57;;;;;;;4.82;1.73;;;8.90;99.90;;;;;;5035424;28;20022;-88
2022/02/16 05:55:22;;;;;;;3.30;2.15;;;8.90;99.90;;;;;;5035308;28;20075;-86
2022/02/16 05:57:48;;;;;;;2.83;1.45;;;9.00;99.90;;;;;;5038776;28;20022;-88
2022/02/16 06:00:14;;;;;;;4.70;1.52;;;9.00;99.90;;;;;;5037510;28;20029;-88
2022/02/16 06:02:40;;;;;;;2.97;1.92;;;;;;;;;;5040069;28;20425;-87
2022/02/16 06:05:07;;;;;;;3.55;2.10;;;9.10;99.90;;;;;;5040356;28;20123;-85
2022/02/16 06:07:33;;;;;;;3.10;1.75;;;9.20;99.90;;;;;;5043393;28;20033;-86
2022/02/16 06:09:58;;;;;;;4.05;1.95;;;9.20;99.90;;;;;;5044866;28;20037;-86
2022/02/16 06:12:24;;;;;;;4.15;2.08;;;9.20;99.90;;;;;;5043194;28;20035;-86
2022/02/16 06:14:49;;;;;;;4.60;3.00;;;9.10;99.90;;;;;;5040691;28;20018;-86
2022/02/16 06:17:15;;;;;;;3.22;2.00;;;9.20;99.90;;;;;;5038162;28;20037;-87
2022/02/16 06:19:41;;;;;;;4.88;2.50;;;9.10;99.90;;;;;;5038636;28;20021;-88
2022/02/16 06:22:07;;;;;;;2.78;2.03;;;10.70;99.90;;;;;;5054204;28;20113;-88
2022/02/16 06:24:33;;;;;;;2.72;1.67;;;9.20;99.90;;;;;;5057667;28;20025;-85
2022/02/16 06:26:58;;;;;;;3.00;2.30;;;9.30;99.90;;;;;;5070270;28;20025;-86
2022/02/16 06:29:24;;;;;;;3.35;2.58;;;9.40;99.90;;;;;;5061741;28;20027;-86
2022/02/16 06:31:49;;;;;;;3.88;2.30;;;9.30;99.90;;;;;;5063339;28;20029;-86
2022/02/16 06:34:15;;;;;;;3.38;2.40;;;9.40;99.90;;;;;;5058194;28;20026;-86
2022/02/16 06:36:41;;;;;;;2.70;1.77;;;9.40;99.90;;;;;;5043459;28;20026;-88
2022/02/16 06:39:06;;;;;;;3.47;2.38;;;9.40;99.90;;;;;;5036384;28;20022;-87
2022/02/16 06:41:32;;;;;;;2.17;1.50;;;9.40;99.90;;;;;;5043592;28;20030;-87
2022/02/16 06:43:57;;;;;;;2.25;1.77;;;9.40;99.90;;;;;;5046481;28;20115;-87
2022/02/16 06:46:23;;;;;;;2.30;1.33;;;9.40;99.90;;;;;;5042617;28;20116;-87
2022/02/16 06:48:49;;;;;;;2.20;1.70;;;9.40;99.90;;;;;;5048328;28;20026;-87
2022/02/16 06:51:18;;;;;;;2.40;1.63;;;9.30;99.90;;;;;;5060199;28;20049;-87
2022/02/16 06:53:55;;;;;;;1.48;1.13;;;9.30;99.90;;;;;;5041750;28;20026;-87
2022/02/16 06:56:20;;;;;;;1.60;1.20;;;9.50;99.90;;;;;;5043797;28;20067;-86
2022/02/16 06:58:46;;;;;;;3.53;1.75;;;8.30;99.90;;;;;;5048765;28;20470;-88
2022/02/16 07:01:12;;;;;;;2.42;1.10;;;9.30;99.90;;;;;;5042469;28;20030;-87
2022/02/16 07:03:37;;;;;;;1.63;1.33;;;9.20;99.90;;;;;;5040100;28;20034;-89
2022/02/16 07:06:03;;;;;;;2.70;0.60;;;9.20;99.90;;;;;;5038591;28;20069;-85
2022/02/16 07:08:29;;;;;;;2.35;0.70;;;9.40;99.90;;;;;;5042785;28;20109;-86
2022/02/16 07:10:54;;;;;;;1.58;0.77;;;9.30;99.90;;;;;;5043004;28;20513;-87
2022/02/16 07:13:20;;;;;;;1.38;0.77;;;12.80;99.90;;;;;;5042667;28;20025;-87
2022/02/16 07:15:45;;;;;;;3.05;0.90;;;9.40;99.90;;;;;;5039525;28;20029;-89
2022/02/16 07:18:11;;;;;;;1.80;0.38;;;9.60;99.90;;;;;;5039939;28;20021;-87
2022/02/16 07:20:36;;;;;;;1.85;0.60;;;12.40;99.90;;;;;;5039972;28;20097;-87
2022/02/16 07:23:03;;;;;;;0.90;0.28;;;;;;;;;;5041389;28;20120;-88
2022/02/16 07:25:29;;;;;;;1.15;0.52;;;;;;;;;;5042230;28;20085;-89
2022/02/16 07:27:55;;;;;;;1.13;0.50;;;;;;;;;;5044692;28;20057;-87
2022/02/16 07:30:21;;;;;;;0.30;0.20;;;;;;;;;;5046344;28;20026;-87
2022/02/16 07:32:46;;;;;;;2.08;0.60;;;9.70;99.90;;;;;;5057787;28;20049;-87
2022/02/16 07:35:12;;;;;;;2.55;0.28;;;9.30;99.90;;;;;;5043005;28;20025;-87
2022/02/16 07:37:38;;;;;;;1.15;0.30;;;9.70;99.90;;;;;;5053194;28;20028;-88
2022/02/16 07:40:05;;;;;;;1.13;0.50;;;10.50;99.90;;;;;;5051018;28;20022;-89
2022/02/16 07:42:31;;;;;;;1.65;0.40;;;9.70;99.90;;;;;;5048364;28;20041;-87
2022/02/16 07:44:57;;;;;;;1.60;0.38;;;9.70;99.90;;;;;;5048837;28;20025;-87
2022/02/16 07:47:23;;;;;;;1.05;0.30;;;9.50;99.90;;;;;;5043791;28;20536;-86
2022/02/16 07:49:49;;;;;;;2.38;0.28;;;9.60;99.90;;;;;;5046046;28;20029;-87
2022/02/16 07:52:15;;;;;;;1.35;0.43;;;12.50;99.90;;;;;;5048311;28;20041;-86
2022/02/16 07:54:41;;;;;;;1.02;0.30;;;9.60;99.90;;;;;;5040339;28;20060;-87
2022/02/16 07:57:07;;;;;;;2.67;0.52;;;9.70;99.90;;;;;;5040134;28;20025;-86
2022/02/16 07:59:32;;;;;;;1.27;0.43;;;12.80;99.90;;;;;;5040033;28;20089;-88
2022/02/16 08:01:58;;;;;;;1.52;0.22;;;9.60;99.90;;;;;;5038580;28;20108;-88
2022/02/16 08:04:27;;;;;;;1.23;0.30;;;9.60;99.90;;;;;;5038490;28;20398;-87
2022/02/16 08:06:53;;;;;;;1.25;0.40;;;12.00;99.90;;;;;;5041757;28;20037;-87
2022/02/16 08:09:20;;;;;;;1.95;0.20;;;9.50;99.90;;;;;;5041464;28;20483;-89
2022/02/16 08:11:46;;;;;;;0.47;0.10;;;9.50;99.90;;;;;;5036651;28;20036;-87
2022/02/16 08:14:13;;;;;;;1.80;0.35;;;9.70;99.90;;;;;;5039329;28;20117;-89
2022/02/16 08:16:39;;;;;;;1.60;0.40;;;12.70;99.90;;;;;;5038817;28;20025;-88
2022/02/16 08:19:12;;;;;;;1.63;0.55;;;9.90;99.90;;;;;;5040230;28;20021;-88
2022/02/16 08:21:38;;;;;;;3.25;0.93;;;;;;;;;;5042619;28;20101;-88
2022/02/16 08:24:05;;;;;;;2.25;0.95;;;10.00;99.90;;;;;;5043049;28;20021;-88
2022/02/16 08:26:31;;;;;;;4.05;1.30;;;;;;;;;;5036239;28;20045;-88
2022/02/16 08:28:57;;;;;;;3.50;1.02;;;;;;;;;;5036504;28;20037;-89
2022/02/16 08:31:23;;;;;;;4.45;1.88;;;10.00;99.90;;;;;;5052948;28;20403;-88
2022/02/16 08:33:49;;;;;;;5.18;1.38;;;9.40;99.90;;;;;;5040623;28;20502;-88
2022/02/16 08:36:15;;;;;;;5.47;2.13;;;9.90;99.90;;;;;;5039284;28;20025;-88
2022/02/16 08:38:41;;;;;;;6.65;2.47;;;10.80;99.90;;;;;;5055123;28;20070;-88
2022/02/16 08:41:09;;;;;;;4.38;2.17;;;10.10;99.90;;;;;;5037194;28;20057;-88
2022/02/16 08:43:35;;;;;;;9.45;1.95;;;10.10;99.90;;;;;;5039620;28;20021;-87
2022/02/16 08:46:01;;;;;;;8.13;2.22;;;10.30;99.90;;;;;;5053760;28;20039;-89
2022/02/16 08:48:27;;;;;;;13.07;3.50;;;10.40;99.90;;;;;;5065966;28;20028;-88
2022/02/16 08:50:55;;;;;;;12.70;2.28;;;10.40;99.90;;;;;;5070186;28;20020;-87
2022/02/16 08:53:22;;;;;;;10.63;2.35;;;10.50;99.90;;;;;;5058262;28;20060;-89
2022/02/16 08:55:48;;;;;;;12.05;2.50;;;10.50;99.90;;;;;;5038378;28;20022;-88
2022/02/16 08:58:14;;;;;;;10.23;2.03;;;10.60;99.90;;;;;;5036120;28;20071;-85
2022/02/16 09:00:40;;;;;;;9.00;1.95;;;13.30;99.90;;;;;;5047498;28;20100;-85
2022/02/16 09:03:06;;;;;;;10.15;1.83;;;10.70;99.90;;;;;;5036381;28;20027;-85
2022/02/16 09:05:32;;;;;;;9.63;1.23;;;10.80;99.90;;;;;;5036800;28;20510;-87
2022/02/16 09:07:58;;;;;;;12.90;2.30;;;10.80;99.90;;;;;;5034600;28;20025;-86
2022/02/16 09:10:24;;;;;;;6.68;1.52;;;10.90;99.90;;;;;;5035289;28;20021;-88
2022/02/16 09:12:50;;;;;;;11.02;1.45;;;10.90;99.90;;;;;;5020501;28;20483;-89
2022/02/16 09:15:17;;;;;;;8.60;1.23;;;14.00;99.90;;;;;;5038732;28;20022;-89
2022/02/16 09:17:44;;;;;;;14.02;1.25;;;11.70;99.90;;;;;;5037919;28;20022;-87
2022/02/16 09:20:10;;;;;;;12.25;0.80;;;14.00;99.90;;;;;;5035015;28;20048;-86
2022/02/16 09:22:37;;;;;;;15.43;1.75;;;11.10;99.90;;;;;;5035508;28;20081;-84
2022/02/16 09:25:03;;;;;;;11.52;0.68;;;11.00;99.90;;;;;;5034652;28;20080;-86
2022/02/16 09:27:28;;;;;;;12.18;1.73;;;11.20;99.90;;;;;;5034408;28;20029;-85
2022/02/16 09:29:54;;;;;;;10.93;1.40;;;11.20;99.90;;;;;;5036554;28;20052;-86
2022/02/16 09:32:21;;;;;;;13.35;0.73;;;11.30;99.90;;;;;;5034608;28;20018;-86
2022/02/16 09:34:47;;;;;;;11.68;1.88;;;11.30;99.90;;;;;;5034887;28;20057;-85
2022/02/16 09:37:13;;;;;;;10.95;0.50;;;11.40;99.90;;;;;;5033572;28;20041;-85
2022/02/16 09:39:39;;;;;;;13.80;1.48;;;11.50;99.90;;;;;;5033161;28;20032;-85
2022/02/16 09:42:05;;;;;;;4.65;0.30;;;11.60;99.90;;;;;;5035481;28;20021;-85
2022/02/16 09:44:35;;;;;;;14.73;0.50;;;11.70;99.90;;;;;;5046465;28;20049;-88
2022/02/16 09:47:03;;;;;;;7.93;1.02;;;11.30;99.90;;;;;;5049338;28;20030;-88
2022/02/16 09:49:29;;;;;;;18.42;1.33;;;11.80;99.90;;;;;;5049573;28;20036;-89
2022/02/16 09:51:54;;;;;;;10.93;0.50;;;13.60;99.90;;;;;;5047039;28;20029;-86
2022/02/16 09:54:20;;;;;;;18.00;1.55;;;12.00;99.90;;;;;;5038800;28;20120;-85
2022/02/16 09:56:46;;;;;;;10.82;0.45;;;12.00;99.90;;;;;;5034118;28;20030;-87
2022/02/16 09:59:11;;;;;;;16.98;2.63;;;12.10;99.90;;;;;;5035428;28;20013;-86
2022/02/16 10:01:53;;;;;;;14.82;0.77;;;12.20;99.90;;;;;;5014564;28;20067;-86
2022/02/16 10:04:19;;;;;;;13.15;0.90;;;12.60;99.90;;;;;;5025619;28;20101;-88
2022/02/16 10:06:45;;;;;;;14.05;0.93;;;12.30;99.90;;;;;;5034739;28;20052;-89
2022/02/16 10:09:31;;;;;;;13.30;1.27;;;12.30;99.90;;;;;;5033936;28;20499;-88
2022/02/16 10:11:59;;;;;;;12.70;0.47;;;12.30;99.90;;;;;;5033130;28;20018;-89
2022/02/16 10:14:30;;;;;;;8.65;0.22;;;12.20;99.90;;;;;;5033639;28;20537;-86
2022/02/16 10:17:03;;;;;;;15.05;1.75;;;12.20;99.90;;;;;;5034708;28;20128;-87
2022/02/16 10:19:55;;;;;;;13.40;0.52;;;12.40;99.90;;;;;;5033253;28;20017;-89
2022/02/16 10:22:30;;;;;;;10.00;0.90;;;12.40;99.90;;;;;;5033128;28;20499;-88
2022/02/16 10:25:15;;;;;;;8.85;0.50;;;14.80;99.90;;;;;;5033834;28;20026;-86
2022/02/16 10:28:01;;;;;;;13.27;1.00;;;12.50;99.90;;;;;;5033260;28;20029;-86
2022/02/16 10:30:26;;;;;;;9.07;0.65;;;13.10;99.90;;;;;;5034415;28;20036;-85
2022/02/16 10:32:52;;;;;;;8.93;0.43;;;12.20;99.90;;;;;;5033446;28;20092;-86
2022/02/16 10:35:31;;;;;;;14.40;1.33;;;14.80;99.90;;;;;;5034727;28;20030;-85
2022/02/16 10:38:00;;;;;;;11.25;0.32;;;12.20;99.90;;;;;;5033003;28;20018;-86
2022/02/16 10:40:26;;;;;;;10.90;0.95;;;12.30;99.90;;;;;;5033997;28;20399;-85
2022/02/16 10:42:56;;;;;;;9.25;0.57;;;12.20;99.90;;;;;;5034272;28;20025;-85
2022/02/16 10:45:27;;;;;;;9.77;0.90;;;12.20;99.90;;;;;;5036467;28;20037;-86
2022/02/16 10:48:04;;;;;;;6.97;0.30;;;12.10;99.90;;;;;;5033703;28;20467;-88
2022/02/16 10:50:37;;;;;;;8.60;1.10;;;12.10;99.90;;;;;;5033686;28;20482;-85
2022/02/16 10:53:04;;;;;;;7.30;0.57;;;12.10;99.90;;;;;;5033735;28;20025;-88
2022/02/16 10:55:48;;;;;;;4.78;0.45;;;12.00;99.90;;;;;;5034275;28;20030;-88
2022/02/16 10:58:22;;;;;;;10.68;1.38;;;12.00;99.90;;;;;;5034423;28;20029;-88
2022/02/16 11:00:49;;;;;;;9.73;0.57;;;11.90;99.90;;;;;;5033609;28;20017;-85
2022/02/16 11:03:31;;;;;;;10.77;0.85;;;11.90;99.90;;;;;;5034028;28;20112;-87
2022/02/16 11:05:58;;;;;;;9.32;0.75;;;11.90;99.90;;;;;;5033170;28;20017;-88
2022/02/16 11:08:26;;;;;;;10.05;0.98;;;11.90;99.90;;;;;;5033943;28;20018;-88
2022/02/16 11:10:53;;;;;;;10.50;0.85;;;13.10;99.90;;;;;;5034100;28;20071;-88
2022/02/16 11:13:21;;;;;;;8.98;0.35;;;11.90;99.90;;;;;;5034004;28;20034;-87
2022/02/16 11:15:48;;;;;;;11.25;0.85;;;11.90;99.90;;;;;;5033853;28;20336;-87
2022/02/16 11:18:18;;;;;;;13.48;1.38;;;11.90;99.90;;;;;;5035017;28;20017;-89
2022/02/16 11:20:44;;;;;;;7.32;0.77;;;11.80;99.90;;;;;;5035089;28;20024;-87
2022/02/16 11:23:13;;;;;;;13.10;1.10;;;11.90;99.90;;;;;;5033914;28;20021;-87
2022/02/16 11:25:44;;;;;;;12.32;0.50;;;11.80;99.90;;;;;;5035027;28;20013;-88
2022/02/16 11:28:12;;;;;;;8.05;0.45;;;11.80;99.90;;;;;;5038444;28;20097;-88
2022/02/16 11:30:45;;;;;;;9.05;0.80;;;15.30;99.90;;;;;;5037819;28;20018;-88
2022/02/16 11:33:12;;;;;;;9.93;1.02;;;11.80;99.90;;;;;;5036910;28;20028;-88
2022/02/16 11:36:00;;;;;;;21.75;1.52;;;11.90;99.90;;;;;;5036087;28;20021;-88
2022/02/16 11:38:40;;;;;;;17.90;1.17;;;11.90;99.90;;;;;;5035733;28;20438;-88
2022/02/16 11:41:19;;;;;;;13.55;0.70;;;11.70;99.90;;;;;;5035725;28;20028;-87
2022/02/16 11:43:57;;;;;;;14.85;1.58;;;11.80;99.90;;;;;;5034964;28;20479;-88
2022/02/16 11:46:47;;;;;;;12.68;1.17;;;12.90;99.90;;;;;;5035592;28;20382;-89
2022/02/16 11:49:28;;;;;;;16.25;0.85;;;11.80;99.90;;;;;;5037349;28;20029;-87
2022/02/16 11:51:54;;;;;;;10.25;1.08;;;14.10;99.90;;;;;;5035607;28;20037;-88
2022/02/16 11:54:42;;;;;;;7.20;0.85;;;11.80;99.90;;;;;;5037412;28;20018;-87
2022/02/16 11:57:42;;;;;;;10.98;1.67;;;11.80;99.90;;;;;;5037117;28;20164;-88
2022/02/16 12:00:20;;;;;;;15.07;1.88;;;11.80;99.90;;;;;;5035195;28;20032;-88
2022/02/16 12:02:54;;;;;;;12.98;1.67;;;11.80;99.90;;;;;;5035565;28;20026;-87
2022/02/16 12:05:58;;;;;;;15.10;1.38;;;11.80;99.90;;;;;;5034987;28;20026;-87
2022/02/16 12:08:32;;;;;;;9.90;1.33;;;11.80;99.90;;;;;;5051082;28;20159;-88
2022/02/16 12:11:04;;;;;;;19.90;1.67;;;11.90;99.90;;;;;;5034517;28;20049;-87
2022/02/16 12:13:38;;;;;;;9.52;0.73;;;11.90;99.90;;;;;;5034455;28;20025;-87
2022/02/16 12:16:07;;;;;;;11.38;1.90;;;11.90;99.90;;;;;;5035980;28;20476;-87
2022/02/16 12:18:34;;;;;;;;;;;12.00;99.90;;;;;;5035602;28;20045;-88
2022/02/16 12:21:00;;;;;;;12.55;1.40;;;12.00;99.90;;;;;;5034427;28;20398;-87
2022/02/16 12:23:30;;;;;;;12.55;1.08;;;12.00;99.90;;;;;;5035749;28;20498;-88
2022/02/16 12:26:17;;;;;;;11.27;1.25;;;11.90;99.90;;;;;;5034123;28;20024;-88
2022/02/16 12:28:58;;;;;;;9.20;0.80;;;12.00;99.90;;;;;;5038417;28;20128;-88
2022/02/16 12:31:27;;;;;;;14.00;0.70;;;12.00;99.90;;;;;;5034582;28;20108;-88
2022/02/16 12:34:01;;;;;;;13.38;0.55;;;12.00;99.90;;;;;;5034358;28;20463;-87
2022/02/16 12:36:28;;;;;;;14.55;2.03;;;14.50;99.90;;;;;;5036048;28;20047;-88
2022/02/16 12:38:56;;;;;;;12.70;1.40;;;12.00;99.90;;;;;;5034084;28;20029;-88
2022/02/16 12:41:22;;;;;;;14.38;0.60;;;14.40;99.90;;;;;;5034197;28;20017;-86
2022/02/16 12:43:54;;;;;;;16.25;1.33;;;11.90;99.90;;;;;;5034107;28;20025;-89
2022/02/16 12:46:24;;;;;;;11.85;0.98;;;11.90;99.90;;;;;;5034328;28;20026;-89
2022/02/16 12:48:50;;;;;;;9.55;1.15;;;11.90;99.90;;;;;;5033977;28;20021;-87
2022/02/16 12:51:35;;;;;;;19.27;1.83;;;12.70;99.90;;;;;;5034051;28;20168;-89
2022/02/16 12:54:07;;;;;;;19.80;1.83;;;12.10;99.90;;;;;;5033873;28;20025;-87
2022/02/16 12:56:40;;;;;;;19.42;1.25;;;12.20;99.90;;;;;;5034371;28;20022;-86
2022/02/16 12:59:21;;;;;;;11.98;1.23;;;13.30;99.90;;;;;;5034603;28;20067;-87